createdAt,value
2019-06-15T00:01:15.662Z,3.00
2019-06-15T00:03:45.658Z,3.40
2019-06-15T00:06:16.800Z,3.17
2019-06-15T00:08:47.305Z,3.50
2019-06-15T00:11:17.215Z,3.60
2019-06-15T00:13:47.222Z,3.20
2019-06-15T00:16:17.090Z,3.20
2019-06-15T00:18:47.020Z,3.50
2019-06-15T00:21:17.192Z,3.67
2019-06-15T00:23:47.044Z,3.40
2019-06-15T00:26:16.966Z,3.20
2019-06-15T00:28:48.430Z,4.17
2019-06-15T00:31:18.574Z,3.53
2019-06-15T00:33:49.010Z,3.60
2019-06-15T00:36:18.972Z,3.30
2019-06-15T00:38:48.804Z,3.60
2019-06-15T00:41:18.701Z,3.53
2019-06-15T00:43:49.226Z,2.93
2019-06-15T00:46:19.625Z,3.20
2019-06-15T00:48:49.857Z,3.20
2019-06-15T00:51:19.886Z,4.03
2019-06-15T00:53:52.083Z,3.60
2019-06-15T00:56:22.614Z,3.90
2019-06-15T00:58:53.036Z,3.83
2019-06-15T01:01:23.233Z,3.90
2019-06-15T01:03:54.824Z,3.73
2019-06-15T01:06:24.836Z,3.53
2019-06-15T01:08:54.964Z,3.73
2019-06-15T01:11:27.065Z,4.30
2019-06-15T01:13:58.318Z,3.50
2019-06-15T01:16:29.718Z,4.60
2019-06-15T01:18:59.844Z,3.73
2019-06-15T01:21:30.108Z,4.00
2019-06-15T01:24:00.561Z,3.60
2019-06-15T01:26:30.749Z,4.20
2019-06-15T01:29:01.312Z,3.37
2019-06-15T01:31:31.393Z,4.10
2019-06-15T01:34:05.813Z,3.80
2019-06-15T01:36:36.235Z,3.60
2019-06-15T01:39:06.582Z,3.73
2019-06-15T01:41:38.261Z,4.30
2019-06-15T01:44:08.102Z,3.33
2019-06-15T01:46:37.946Z,3.80
2019-06-15T01:49:07.933Z,3.73
2019-06-15T01:51:40.431Z,3.90
2019-06-15T01:54:13.830Z,3.70
2019-06-15T01:56:45.241Z,3.30
2019-06-15T01:59:15.242Z,3.70
2019-06-15T02:01:46.434Z,3.70
2019-06-15T02:04:17.523Z,3.60
2019-06-15T02:06:47.690Z,3.77
2019-06-15T02:09:17.939Z,4.20
2019-06-15T02:11:49.469Z,3.50
2019-06-15T02:14:20.708Z,4.40
2019-06-15T02:16:50.627Z,3.53
2019-06-15T02:19:20.533Z,3.80
2019-06-15T02:21:50.370Z,3.90
2019-06-15T02:24:20.232Z,3.90
2019-06-15T02:26:50.207Z,3.47
2019-06-15T02:29:23.152Z,3.67
2019-06-15T02:31:53.308Z,4.00
2019-06-15T02:34:23.270Z,3.50
2019-06-15T02:36:56.619Z,3.70
2019-06-15T02:39:26.700Z,3.80
2019-06-15T02:41:57.100Z,3.90
2019-06-15T02:44:27.155Z,3.47
2019-06-15T02:46:58.360Z,4.17
2019-06-15T02:49:28.984Z,3.70
2019-06-15T02:52:00.181Z,3.70
2019-06-15T02:54:30.095Z,4.07
2019-06-15T02:57:01.592Z,3.40
2019-06-15T02:59:33.086Z,3.63
2019-06-15T03:02:04.290Z,4.03
2019-06-15T03:04:35.411Z,3.97
2019-06-15T03:07:05.809Z,3.80
2019-06-15T03:09:36.075Z,3.40
2019-06-15T03:12:06.622Z,3.57
2019-06-15T03:14:36.464Z,3.77
2019-06-15T03:17:06.876Z,3.53
2019-06-15T03:19:37.649Z,4.00
2019-06-15T03:22:07.987Z,3.30
2019-06-15T03:24:38.036Z,3.80
2019-06-15T03:27:08.297Z,4.07
2019-06-15T03:29:38.303Z,3.80
2019-06-15T03:32:08.215Z,3.77
2019-06-15T03:34:38.146Z,3.43
2019-06-15T03:37:08.590Z,3.97
2019-06-15T03:39:39.024Z,3.53
2019-06-15T03:42:09.090Z,3.57
2019-06-15T03:44:39.119Z,3.67
2019-06-15T03:47:08.911Z,3.20
2019-06-15T03:49:39.943Z,3.57
2019-06-15T03:52:09.937Z,3.37
2019-06-15T03:54:39.975Z,3.73
2019-06-15T03:57:09.954Z,3.63
2019-06-15T03:59:40.334Z,3.10
2019-06-15T04:02:10.858Z,4.03
2019-06-15T04:04:41.400Z,3.30
2019-06-15T04:07:14.373Z,4.63
2019-06-15T04:09:44.433Z,3.90
2019-06-15T04:12:15.101Z,4.50
2019-06-15T04:14:46.237Z,3.37
2019-06-15T04:17:16.900Z,3.33
2019-06-15T04:19:47.482Z,3.50
2019-06-15T04:22:17.995Z,3.70
2019-06-15T04:24:48.810Z,3.50
2019-06-15T04:27:19.576Z,3.70
2019-06-15T04:29:49.717Z,3.27
2019-06-15T04:32:19.731Z,3.40
2019-06-15T04:34:49.825Z,3.20
2019-06-15T04:37:19.849Z,3.10
2019-06-15T04:39:49.869Z,3.40
2019-06-15T04:42:20.649Z,3.60
2019-06-15T04:44:53.685Z,4.07
2019-06-15T04:47:23.639Z,3.30
2019-06-15T04:49:53.917Z,3.60
2019-06-15T04:52:23.903Z,3.50
2019-06-15T04:54:54.006Z,3.47
2019-06-15T04:57:25.151Z,3.47
2019-06-15T04:59:55.008Z,3.40
2019-06-15T05:02:27.421Z,4.00
2019-06-15T05:04:57.398Z,3.80
2019-06-15T05:07:27.609Z,3.50
2019-06-15T05:09:59.912Z,4.10
2019-06-15T05:12:29.984Z,3.90
2019-06-15T05:14:59.890Z,3.60
2019-06-15T05:17:30.334Z,4.33
2019-06-15T05:20:01.517Z,4.87
2019-06-15T05:22:31.531Z,4.40
2019-06-15T05:25:02.001Z,4.77
2019-06-15T05:27:32.496Z,4.10
2019-06-15T05:30:02.976Z,4.20
2019-06-15T05:32:33.378Z,4.07
2019-06-15T05:35:06.686Z,4.73
2019-06-15T05:37:37.098Z,4.30
2019-06-15T05:40:08.857Z,4.40
2019-06-15T05:42:39.633Z,4.47
2019-06-15T05:45:11.052Z,4.13
2019-06-15T05:47:41.264Z,4.73
2019-06-15T05:50:11.377Z,5.30
2019-06-15T05:52:41.906Z,4.77
2019-06-15T05:55:12.269Z,5.50
2019-06-15T05:57:42.315Z,4.87
2019-06-15T06:00:13.212Z,5.00
2019-06-15T06:02:44.101Z,5.20
2019-06-15T06:05:15.505Z,5.70
2019-06-15T06:07:45.789Z,4.77
2019-06-15T06:10:17.831Z,4.47
2019-06-15T06:12:48.658Z,5.20
2019-06-15T06:15:19.239Z,5.33
2019-06-15T06:17:49.529Z,4.57
2019-06-15T06:20:20.310Z,5.73
2019-06-15T06:22:50.475Z,5.10
2019-06-15T06:25:23.759Z,5.10
2019-06-15T06:27:54.940Z,5.00
2019-06-15T06:30:30.273Z,4.70
2019-06-15T06:33:00.215Z,4.93
2019-06-15T06:35:30.814Z,4.90
2019-06-15T06:38:00.757Z,5.40
2019-06-15T06:40:31.113Z,5.17
2019-06-15T06:43:01.287Z,4.90
2019-06-15T06:45:31.904Z,4.50
2019-06-15T06:48:02.077Z,4.70
2019-06-15T06:50:32.034Z,4.40
2019-06-15T06:53:02.488Z,4.90
2019-06-15T06:55:33.171Z,4.80
2019-06-15T06:58:03.989Z,5.03
2019-06-15T07:00:34.689Z,4.90
2019-06-15T07:03:05.236Z,5.50
2019-06-15T07:05:35.716Z,5.00
2019-06-15T07:08:06.545Z,5.30
2019-06-15T07:10:37.366Z,4.40
2019-06-15T07:13:07.730Z,4.20
2019-06-15T07:15:39.457Z,4.90
2019-06-15T07:18:10.318Z,4.77
2019-06-15T07:20:40.445Z,5.20
2019-06-15T07:23:11.561Z,4.30
2019-06-15T07:25:43.032Z,3.90
2019-06-15T07:28:13.153Z,3.60
2019-06-15T07:30:43.185Z,3.37
2019-06-15T07:33:14.704Z,3.60
2019-06-15T07:35:47.003Z,3.60
2019-06-15T07:38:17.106Z,3.50
2019-06-15T07:40:47.615Z,3.73
2019-06-15T07:43:17.779Z,3.70
2019-06-15T07:45:48.189Z,3.03
2019-06-15T07:48:18.860Z,4.30
2019-06-15T07:50:48.837Z,3.80
2019-06-15T07:53:20.198Z,3.60
2019-06-15T07:55:50.354Z,3.30
2019-06-15T07:58:24.656Z,3.40
2019-06-15T08:00:55.323Z,3.20
2019-06-15T08:03:25.886Z,3.07
2019-06-15T08:05:56.086Z,3.70
2019-06-15T08:08:29.632Z,3.50
2019-06-15T08:10:59.582Z,3.50
2019-06-15T08:13:29.544Z,3.50
2019-06-15T08:15:59.911Z,4.00
2019-06-15T08:18:30.873Z,3.40
2019-06-15T08:21:01.003Z,3.57
2019-06-15T08:23:31.410Z,3.13
2019-06-15T08:26:01.521Z,3.60
2019-06-15T08:28:39.875Z,3.97
2019-06-15T08:31:03.387Z,3.70
2019-06-15T08:33:33.581Z,3.50
2019-06-15T08:36:04.026Z,3.73
2019-06-15T08:38:34.836Z,3.10
2019-06-15T08:41:05.689Z,3.70
2019-06-15T08:43:36.597Z,3.47
2019-06-15T08:46:08.332Z,2.93
2019-06-15T08:48:38.828Z,3.43
2019-06-15T08:51:11.155Z,3.50
2019-06-15T08:53:41.812Z,3.43
2019-06-15T08:56:14.247Z,3.03
2019-06-15T08:58:55.046Z,3.90
2019-06-15T09:01:18.125Z,3.53
2019-06-15T09:03:49.561Z,3.90
2019-06-15T09:06:21.067Z,3.60
2019-06-15T09:08:51.809Z,2.60
2019-06-15T09:11:26.072Z,3.40
2019-06-15T09:13:56.734Z,3.10
2019-06-15T09:16:30.665Z,2.90
2019-06-15T09:19:03.501Z,2.80
2019-06-15T09:21:34.529Z,2.77
2019-06-15T09:24:05.560Z,3.33
2019-06-15T09:26:42.037Z,2.50
2019-06-15T09:29:16.317Z,2.70
2019-06-15T09:31:46.976Z,2.47
2019-06-15T09:34:19.415Z,2.50
2019-06-15T09:36:54.082Z,3.03
2019-06-15T09:39:24.365Z,2.97
2019-06-15T09:41:57.459Z,2.43
2019-06-15T09:44:33.168Z,2.37
2019-06-15T09:47:05.111Z,2.97
2019-06-15T09:49:41.029Z,2.80
2019-06-15T09:52:16.359Z,2.57
2019-06-15T09:54:49.601Z,2.50
2019-06-15T09:57:21.694Z,2.73
2019-06-15T09:59:51.857Z,2.73
2019-06-15T10:02:27.102Z,2.60
2019-06-15T10:05:02.549Z,2.40
2019-06-15T10:07:33.550Z,2.60
2019-06-15T10:10:07.304Z,2.33
2019-06-15T10:12:40.147Z,1.93
2019-06-15T10:15:11.779Z,2.50
2019-06-15T10:17:43.514Z,2.80
2019-06-15T10:20:16.341Z,2.53
2019-06-15T10:22:47.228Z,2.10
2019-06-15T10:25:18.158Z,2.57
2019-06-15T10:27:50.954Z,2.50
2019-06-15T10:30:23.516Z,2.27
2019-06-15T10:32:53.798Z,2.57
2019-06-15T10:35:24.183Z,2.90
2019-06-15T10:37:59.461Z,2.93
2019-06-15T10:40:30.427Z,2.43
2019-06-15T10:43:12.408Z,2.27
2019-06-15T10:45:43.706Z,2.50
2019-06-15T10:48:18.233Z,1.97
2019-06-15T10:50:48.724Z,2.57
2019-06-15T10:53:21.626Z,2.10
2019-06-15T10:55:52.853Z,2.07
2019-06-15T10:58:23.982Z,2.70
2019-06-15T11:01:05.384Z,2.97
2019-06-15T11:03:37.618Z,3.20
2019-06-15T11:06:10.958Z,2.40
2019-06-15T11:08:41.595Z,2.40
2019-06-15T11:11:36.164Z,2.53
2019-06-15T11:14:32.265Z,2.57
2019-06-15T11:17:08.278Z,2.50
2019-06-15T11:19:39.924Z,2.50
2019-06-15T11:22:25.250Z,2.57
2019-06-15T11:25:06.189Z,2.67
2019-06-15T11:27:40.930Z,2.23
2019-06-15T11:30:14.135Z,1.87
2019-06-15T11:32:44.463Z,2.13
2019-06-15T11:35:17.998Z,3.03
2019-06-15T11:37:48.339Z,2.70
2019-06-15T11:40:23.914Z,2.30
2019-06-15T11:42:55.099Z,2.60
2019-06-15T11:45:26.979Z,2.60
2019-06-15T11:47:58.774Z,2.37
2019-06-15T11:50:33.620Z,2.43
2019-06-15T11:53:05.960Z,2.43
2019-06-15T11:55:39.739Z,2.20
2019-06-15T11:58:13.396Z,2.20
2019-06-15T12:00:47.627Z,2.13
2019-06-15T12:03:25.460Z,2.50
2019-06-15T12:05:58.156Z,2.20
2019-06-15T12:08:34.309Z,2.40
2019-06-15T12:11:08.791Z,1.80
2019-06-15T12:13:42.800Z,2.40
2019-06-15T12:16:15.939Z,2.20
2019-06-15T12:18:46.252Z,1.73
2019-06-15T12:21:17.560Z,1.60
2019-06-15T12:23:52.242Z,2.03
2019-06-15T12:26:23.464Z,1.67
2019-06-15T12:28:57.700Z,1.80
2019-06-15T12:31:29.256Z,1.73
2019-06-15T12:34:00.845Z,1.60
2019-06-15T12:36:31.393Z,2.10
2019-06-15T12:39:03.624Z,2.13
2019-06-15T12:41:34.107Z,1.17
2019-06-15T12:44:06.810Z,1.40
2019-06-15T12:46:37.334Z,1.20
2019-06-15T12:49:12.349Z,1.57
2019-06-15T12:51:43.521Z,1.60
2019-06-15T12:54:13.757Z,1.50
2019-06-15T12:56:44.470Z,1.10
2019-06-15T12:59:15.459Z,1.30
2019-06-15T13:01:46.354Z,1.27
2019-06-15T13:04:27.434Z,1.50
2019-06-15T13:07:02.077Z,1.60
2019-06-15T13:09:33.967Z,1.33
2019-06-15T13:12:05.513Z,1.53
2019-06-15T13:14:37.264Z,1.50
2019-06-15T13:17:07.855Z,1.33
2019-06-15T13:19:38.803Z,2.07
2019-06-15T13:22:11.805Z,1.87
2019-06-15T13:24:46.922Z,1.53
2019-06-15T13:27:19.044Z,2.20
2019-06-15T13:29:53.049Z,1.70
2019-06-15T13:32:30.382Z,1.87
2019-06-15T13:35:00.581Z,1.43
2019-06-15T13:37:41.640Z,1.93
2019-06-15T13:40:04.015Z,1.40
2019-06-15T13:42:35.924Z,1.40
2019-06-15T13:45:10.602Z,1.60
2019-06-15T13:47:41.225Z,1.47
2019-06-15T13:50:12.948Z,1.30
2019-06-15T13:52:43.068Z,1.10
2019-06-15T13:55:17.771Z,1.40
2019-06-15T13:57:49.061Z,1.40
2019-06-15T14:00:21.205Z,1.47
2019-06-15T14:02:54.719Z,1.27
2019-06-15T14:05:25.050Z,1.30
2019-06-15T14:07:56.338Z,1.30
2019-06-15T14:10:31.322Z,1.83
2019-06-15T14:13:01.739Z,1.27
2019-06-15T14:15:35.208Z,1.20
2019-06-15T14:18:06.308Z,1.40
2019-06-15T14:20:37.879Z,1.30
2019-06-15T14:23:10.536Z,1.60
2019-06-15T14:25:40.734Z,1.97
2019-06-15T14:28:11.627Z,1.67
2019-06-15T14:30:48.864Z,1.93
2019-06-15T14:33:19.450Z,1.53
2019-06-15T14:35:52.472Z,1.50
2019-06-15T14:38:25.777Z,1.43
2019-06-15T14:40:56.228Z,1.70
2019-06-15T14:43:29.598Z,1.53
2019-06-15T14:46:03.574Z,1.43
2019-06-15T14:48:33.812Z,1.23
2019-06-15T14:51:04.982Z,1.20
2019-06-15T14:53:36.735Z,1.27
2019-06-15T14:56:07.676Z,1.43
2019-06-15T14:58:37.874Z,1.40
2019-06-15T15:01:09.619Z,1.20
2019-06-15T15:03:40.775Z,1.20
2019-06-15T15:06:11.598Z,1.33
2019-06-15T15:08:43.431Z,1.57
2019-06-15T15:11:17.123Z,1.30
2019-06-15T15:13:47.371Z,1.80
2019-06-15T15:16:18.012Z,1.80
2019-06-15T15:18:52.163Z,1.40
2019-06-15T15:21:23.504Z,1.33
2019-06-15T15:23:57.042Z,1.20
2019-06-15T15:26:28.146Z,1.30
2019-06-15T15:28:58.617Z,1.23
2019-06-15T15:31:31.129Z,1.20
2019-06-15T15:34:07.710Z,1.30
2019-06-15T15:36:36.960Z,1.63
2019-06-15T15:39:13.192Z,1.10
2019-06-15T15:41:46.837Z,1.03
2019-06-15T15:44:18.670Z,1.20
2019-06-15T15:46:49.445Z,1.60
2019-06-15T15:49:23.575Z,1.53
2019-06-15T15:51:56.630Z,1.43
2019-06-15T15:54:27.827Z,1.40
2019-06-15T15:57:07.664Z,1.20
2019-06-15T15:59:38.858Z,1.30
2019-06-15T16:02:10.311Z,1.30
2019-06-15T16:04:41.725Z,1.00
2019-06-15T16:07:18.147Z,0.93
2019-06-15T16:09:49.544Z,1.10
2019-06-15T16:12:23.315Z,1.40
2019-06-15T16:14:56.501Z,1.40
2019-06-15T16:17:27.802Z,0.90
2019-06-15T16:20:00.277Z,1.10
2019-06-15T16:22:36.972Z,1.10
2019-06-15T16:25:08.760Z,1.13
2019-06-15T16:27:38.861Z,1.20
2019-06-15T16:30:13.589Z,1.20
2019-06-15T16:32:44.029Z,1.20
2019-06-15T16:35:16.541Z,1.53
2019-06-15T16:37:51.913Z,1.13
2019-06-15T16:40:26.839Z,1.43
2019-06-15T16:42:57.477Z,1.63
2019-06-15T16:45:28.407Z,1.37
2019-06-15T16:47:59.232Z,1.27
2019-06-15T16:50:30.012Z,1.83
2019-06-15T16:53:01.018Z,1.70
2019-06-15T16:55:32.438Z,1.20
2019-06-15T16:58:03.760Z,1.20
2019-06-15T17:00:36.437Z,1.37
2019-06-15T17:03:21.047Z,1.03
2019-06-15T17:05:46.402Z,1.60
2019-06-15T17:08:17.375Z,1.10
2019-06-15T17:10:48.626Z,2.57
2019-06-15T17:13:19.249Z,1.50
2019-06-15T17:15:49.606Z,1.67
2019-06-15T17:18:19.839Z,1.30
2019-06-15T17:20:52.442Z,1.27
2019-06-15T17:23:27.409Z,1.53
2019-06-15T17:25:58.833Z,1.43
2019-06-15T17:31:27.159Z,1.20
2019-06-15T17:33:58.061Z,1.30
2019-06-15T17:36:31.016Z,1.20
2019-06-15T17:39:06.185Z,1.37
2019-06-15T17:41:37.073Z,1.13
2019-06-15T17:44:08.140Z,1.60
2019-06-15T17:46:46.195Z,1.20
2019-06-15T17:49:17.854Z,1.23
2019-06-15T17:51:49.262Z,1.20
2019-06-15T17:54:20.909Z,1.30
2019-06-15T17:56:52.083Z,1.63
2019-06-15T17:59:22.911Z,1.60
2019-06-15T18:01:54.214Z,1.60
2019-06-15T18:04:24.690Z,1.40
2019-06-15T18:06:56.782Z,1.40
2019-06-15T18:09:28.319Z,2.40
2019-06-15T18:11:59.550Z,1.10
2019-06-15T18:14:29.463Z,1.27
2019-06-15T18:17:04.330Z,1.20
2019-06-15T18:19:37.949Z,1.33
2019-06-15T18:22:09.169Z,1.20
2019-06-15T18:24:40.766Z,1.07
2019-06-15T18:27:17.378Z,1.00
2019-06-15T18:29:49.568Z,1.40
2019-06-15T18:32:20.852Z,1.47
2019-06-15T18:34:55.999Z,1.03
2019-06-15T18:37:26.574Z,1.43
2019-06-15T18:39:58.297Z,1.20
2019-06-15T18:42:29.397Z,1.07
2019-06-15T18:45:01.117Z,1.20
2019-06-15T18:47:32.133Z,1.20
2019-06-15T18:50:02.710Z,1.30
2019-06-15T18:52:33.393Z,1.37
2019-06-15T18:55:05.426Z,1.40
2019-06-15T18:57:37.683Z,1.10
2019-06-15T19:00:09.474Z,1.23
2019-06-15T19:02:43.529Z,1.57
2019-06-15T19:05:28.161Z,1.37
2019-06-15T19:08:12.414Z,1.50
2019-06-15T19:10:46.840Z,1.60
2019-06-15T19:13:17.330Z,1.30
2019-06-15T19:15:48.500Z,1.73
2019-06-15T19:18:19.844Z,1.50
2019-06-15T19:20:50.928Z,1.67
2019-06-15T19:23:28.522Z,1.30
2019-06-15T19:26:02.244Z,1.80
2019-06-15T19:28:37.064Z,1.70
2019-06-15T19:31:09.069Z,1.47
2019-06-15T19:33:40.437Z,1.30
2019-06-15T19:36:15.971Z,1.50
2019-06-15T19:38:49.965Z,1.70
2019-06-15T19:41:22.092Z,1.83
2019-06-15T19:43:57.137Z,1.57
2019-06-15T19:46:30.379Z,1.40
2019-06-15T19:49:03.140Z,1.40
2019-06-15T19:51:36.494Z,2.17
2019-06-15T19:54:15.949Z,1.80
2019-06-15T19:56:46.665Z,1.63
2019-06-15T19:59:20.613Z,1.40
2019-06-15T20:01:52.878Z,1.50
2019-06-15T20:04:26.884Z,1.80
2019-06-15T20:06:57.172Z,1.60
2019-06-15T20:09:28.802Z,1.63
2019-06-15T20:12:01.844Z,1.70
2019-06-15T20:14:36.847Z,1.80
2019-06-15T20:17:13.415Z,2.03
2019-06-15T20:20:08.644Z,1.70
2019-06-15T20:22:43.261Z,2.00
2019-06-15T20:25:26.848Z,1.80
2019-06-15T20:27:57.065Z,2.00
2019-06-15T20:30:29.166Z,1.77
2019-06-15T20:33:02.910Z,1.83
2019-06-15T20:35:35.961Z,1.80
2019-06-15T20:38:08.023Z,1.73
2019-06-15T20:40:43.982Z,1.60
2019-06-15T20:43:36.572Z,1.80
2019-06-15T20:46:12.296Z,1.80
2019-06-15T20:48:47.081Z,1.50
2019-06-15T20:51:24.684Z,2.20
2019-06-15T20:53:58.433Z,1.90
2019-06-15T20:56:38.375Z,2.00
2019-06-15T20:59:09.415Z,2.10
2019-06-15T21:01:39.988Z,2.00
2019-06-15T21:04:12.877Z,1.87
2019-06-15T21:06:46.424Z,2.57
2019-06-15T21:09:19.118Z,2.23
2019-06-15T21:11:53.263Z,2.20
2019-06-15T21:14:28.311Z,2.20
2019-06-15T21:17:00.763Z,2.20
2019-06-15T21:19:36.255Z,2.20
2019-06-15T21:22:10.821Z,2.10
2019-06-15T21:24:54.650Z,2.13
2019-06-15T21:27:30.223Z,2.00
2019-06-15T21:30:00.550Z,2.17
2019-06-15T21:32:31.926Z,2.30
2019-06-15T21:35:02.220Z,2.10
2019-06-15T21:37:32.417Z,2.40
2019-06-15T21:40:02.659Z,2.00
2019-06-15T21:42:36.011Z,2.63
2019-06-15T21:45:08.237Z,3.03
2019-06-15T21:47:46.460Z,2.40
2019-06-15T21:50:17.360Z,2.43
2019-06-15T21:52:49.257Z,2.50
2019-06-15T21:55:19.667Z,2.47
2019-06-15T21:57:50.867Z,2.30
2019-06-15T22:00:29.638Z,2.53
2019-06-15T22:03:03.162Z,2.40
2019-06-15T22:05:36.839Z,2.20
2019-06-15T22:08:06.909Z,2.90
2019-06-15T22:10:37.046Z,2.30
2019-06-15T22:13:09.637Z,2.47
2019-06-15T22:15:41.322Z,2.50
2019-06-15T22:18:27.109Z,2.50
2019-06-15T22:20:57.545Z,2.07
2019-06-15T22:23:28.181Z,2.37
2019-06-15T22:25:59.077Z,2.70
2019-06-15T22:28:29.554Z,2.57
2019-06-15T22:31:00.591Z,2.30
2019-06-15T22:33:31.655Z,3.33
2019-06-15T22:36:01.705Z,2.80
2019-06-15T22:38:32.812Z,2.80
2019-06-15T22:41:02.883Z,2.70
2019-06-15T22:43:36.239Z,2.57
2019-06-15T22:46:07.456Z,2.20
2019-06-15T22:48:38.928Z,2.63
2019-06-15T22:51:09.174Z,2.50
2019-06-15T22:53:39.159Z,2.60
2019-06-15T22:56:09.892Z,2.80
2019-06-15T22:58:40.045Z,2.90
2019-06-15T23:01:10.366Z,2.90
2019-06-15T23:03:40.500Z,2.93
2019-06-15T23:06:12.431Z,3.17
2019-06-15T23:08:42.779Z,3.00
2019-06-15T23:11:13.895Z,2.70
2019-06-15T23:13:46.176Z,2.73
2019-06-15T23:16:15.936Z,3.00
2019-06-15T23:18:46.944Z,2.80
2019-06-15T23:21:17.489Z,2.57
2019-06-15T23:23:47.857Z,2.93
2019-06-15T23:26:18.545Z,3.00
2019-06-15T23:28:48.506Z,3.27
2019-06-15T23:31:19.432Z,2.80
2019-06-15T23:33:49.240Z,4.67
2019-06-15T23:36:26.900Z,4.50
2019-06-15T23:38:57.211Z,4.80
2019-06-15T23:41:27.829Z,3.90
2019-06-15T23:43:57.875Z,4.40
2019-06-15T23:46:28.343Z,4.03
2019-06-15T23:48:59.049Z,4.30
2019-06-15T23:51:29.238Z,3.80
2019-06-15T23:53:59.515Z,4.60
2019-06-15T23:56:29.480Z,4.20
2019-06-15T23:58:59.320Z,3.70
